PWSweather.com
Personal Weather Stations
Station Observations
KNCGREEN1000
Bell Orchard Drive, Greensboro, NC 27455

Bell Orchard DriveGreensboro, NC 27455

Lat: 36.132, Lon: -79.8

Elevation: 876

Station Type: Acurite Atlas

Http://www.gilhutcheson.com

High Low Average
Temperature 67.9°F19.9°C 53.5°F11.9°C 61.0°F16.1°C
Dew Point 64.5°F18.1°C 51.4°F10.8°C 59.6°F15.3°C
Winds 11.0 mph 17.7 kmh Calm Calm 3.0 mph S4.8 kmh S
Wind Gusts -- -- --
Humidity 99% 87% 95%
Pressure 30.24 in1024.0 mb 29.86 in1011.2 mb -
Precipitation 0.31 in7.9 mm - -
Hour Temp Dew Point Humidity Winds Wind Gusts Pressure Precip Precip Rate Daily Precip Total
12:02 AM 53.5°F11.9°C 51.7°F10.9°C 94% Calm Calm -- 30.24 in1024.0 mb 0.00 in0.0 mm 0.00 in0.0 mm 0.00 in0.0 mm
12:07 AM 53.6°F12.0°C 51.6°F10.9°C 93% Calm Calm -- 30.24 in1024.0 mb 0.00 in0.0 mm 0.00 in0.0 mm 0.00 in0.0 mm
12:12 AM 53.6°F12.0°C 51.6°F10.9°C 93% Calm Calm -- 30.24 in1024.0 mb 0.00 in0.0 mm 0.00 in0.0 mm 0.00 in0.0 mm
12:17 AM 53.5°F11.9°C 51.4°F10.8°C 93% Calm Calm -- 30.23 in1023.7 mb 0.00 in0.0 mm 0.00 in0.0 mm 0.00 in0.0 mm
12:22 AM 53.8°F12.1°C 51.8°F11.0°C 93% Calm Calm -- 30.23 in1023.7 mb 0.00 in0.0 mm 0.00 in0.0 mm 0.00 in0.0 mm
12:27 AM 53.9°F12.2°C 52.0°F11.1°C 93% 1.0 mph SSE1.6 kmh SSE -- 30.23 in1023.7 mb 0.00 in0.0 mm 0.00 in0.0 mm 0.00 in0.0 mm
12:32 AM 53.9°F12.2°C 52.3°F11.3°C 94% 1.0 mph S1.6 kmh S -- 30.23 in1023.7 mb 0.00 in0.0 mm 0.00 in0.0 mm 0.00 in0.0 mm
12:37 AM 53.9°F12.2°C 52.3°F11.3°C 94% 2.0 mph S3.2 kmh S -- 30.23 in1023.7 mb 0.00 in0.0 mm 0.00 in0.0 mm 0.00 in0.0 mm
12:42 AM 54.1°F12.3°C 52.4°F11.3°C 94% Calm Calm -- 30.23 in1023.7 mb 0.00 in0.0 mm 0.00 in0.0 mm 0.00 in0.0 mm
12:47 AM 54.1°F12.3°C 52.4°F11.3°C 94% 1.0 mph S1.6 kmh S -- 30.23 in1023.7 mb 0.00 in0.0 mm 0.00 in0.0 mm 0.00 in0.0 mm
12:52 AM 54.2°F12.3°C 52.4°F11.3°C 94% 3.0 mph S4.8 kmh S -- 30.23 in1023.7 mb 0.00 in0.0 mm 0.00 in0.0 mm 0.00 in0.0 mm
12:57 AM 54.5°F12.5°C 52.8°F11.6°C 94% 1.0 mph SSE1.6 kmh SSE -- 30.22 in1023.4 mb 0.00 in0.0 mm 0.00 in0.0 mm 0.00 in0.0 mm
01:02 AM 54.6°F12.6°C 53.0°F11.7°C 94% Calm Calm -- 30.22 in1023.4 mb 0.00 in0.0 mm 0.00 in0.0 mm 0.00 in0.0 mm
01:07 AM 54.7°F12.6°C 53.0°F11.7°C 94% Calm Calm -- 30.22 in1023.4 mb 0.00 in0.0 mm 0.00 in0.0 mm 0.00 in0.0 mm
01:12 AM 54.7°F12.6°C 53.0°F11.7°C 94% Calm Calm -- 30.22 in1023.4 mb 0.00 in0.0 mm 0.00 in0.0 mm 0.00 in0.0 mm
01:17 AM 55.0°F12.8°C 53.3°F11.8°C 94% 2.0 mph S3.2 kmh S -- 30.22 in1023.4 mb 0.00 in0.0 mm 0.00 in0.0 mm 0.00 in0.0 mm
01:22 AM 55.1°F12.8°C 53.3°F11.8°C 94% Calm Calm -- 30.21 in1023.0 mb 0.00 in0.0 mm 0.00 in0.0 mm 0.00 in0.0 mm
01:27 AM 55.1°F12.8°C 53.3°F11.8°C 94% Calm Calm -- 30.21 in1023.0 mb 0.00 in0.0 mm 0.00 in0.0 mm 0.00 in0.0 mm
01:32 AM 55.2°F12.9°C 53.5°F11.9°C 94% Calm Calm -- 30.21 in1023.0 mb 0.00 in0.0 mm 0.00 in0.0 mm 0.00 in0.0 mm
01:37 AM 55.3°F12.9°C 53.5°F11.9°C 94% 1.0 mph SSE1.6 kmh SSE -- 30.21 in1023.0 mb 0.00 in0.0 mm 0.00 in0.0 mm 0.00 in0.0 mm
01:42 AM 55.4°F13.0°C 53.7°F12.1°C 94% Calm Calm -- 30.21 in1023.0 mb 0.00 in0.0 mm 0.00 in0.0 mm 0.00 in0.0 mm
01:47 AM 55.5°F13.1°C 53.9°F12.2°C 94% Calm Calm -- 30.21 in1023.0 mb 0.00 in0.0 mm 0.00 in0.0 mm 0.00 in0.0 mm
01:52 AM 55.6°F13.1°C 53.9°F12.2°C 94% Calm Calm -- 30.21 in1023.0 mb 0.00 in0.0 mm 0.00 in0.0 mm 0.00 in0.0 mm
01:57 AM 55.5°F13.1°C 53.9°F12.2°C 94% Calm Calm -- 30.21 in1023.0 mb 0.00 in0.0 mm 0.00 in0.0 mm 0.00 in0.0 mm
02:02 AM 55.4°F13.0°C 53.7°F12.1°C 94% Calm Calm -- 30.20 in1022.7 mb 0.00 in0.0 mm 0.00 in0.0 mm 0.00 in0.0 mm
02:07 AM 55.1°F12.8°C 53.0°F11.7°C 93% Calm Calm -- 30.20 in1022.7 mb 0.00 in0.0 mm 0.00 in0.0 mm 0.00 in0.0 mm
02:12 AM 55.2°F12.9°C 53.2°F11.8°C 93% Calm Calm -- 30.21 in1023.0 mb 0.00 in0.0 mm 0.00 in0.0 mm 0.00 in0.0 mm
02:17 AM 55.5°F13.1°C 53.9°F12.2°C 94% Calm Calm -- 30.21 in1023.0 mb 0.00 in0.0 mm 0.00 in0.0 mm 0.00 in0.0 mm
02:22 AM 55.6°F13.1°C 53.9°F12.2°C 94% Calm Calm -- 30.21 in1023.0 mb 0.00 in0.0 mm 0.00 in0.0 mm 0.00 in0.0 mm
02:27 AM 55.6°F13.1°C 53.9°F12.2°C 94% Calm Calm -- 30.21 in1023.0 mb 0.00 in0.0 mm 0.00 in0.0 mm 0.00 in0.0 mm
02:32 AM 55.7°F13.2°C 54.0°F12.2°C 94% Calm Calm -- 30.21 in1023.0 mb 0.00 in0.0 mm 0.00 in0.0 mm 0.00 in0.0 mm
02:37 AM 55.7°F13.2°C 54.0°F12.2°C 94% Calm Calm -- 30.20 in1022.7 mb 0.00 in0.0 mm 0.00 in0.0 mm 0.00 in0.0 mm
02:42 AM 55.7°F13.2°C 54.0°F12.2°C 94% Calm Calm -- 30.20 in1022.7 mb 0.00 in0.0 mm 0.00 in0.0 mm 0.00 in0.0 mm
02:47 AM 55.9°F13.3°C 54.2°F12.3°C 94% 2.0 mph SSW3.2 kmh SSW -- 30.20 in1022.7 mb 0.00 in0.0 mm 0.00 in0.0 mm 0.00 in0.0 mm
02:52 AM 55.9°F13.3°C 54.2°F12.3°C 94% Calm Calm -- 30.20 in1022.7 mb 0.00 in0.0 mm 0.00 in0.0 mm 0.00 in0.0 mm
02:57 AM 56.0°F13.3°C 54.2°F12.3°C 94% Calm Calm -- 30.20 in1022.7 mb 0.00 in0.0 mm 0.00 in0.0 mm 0.00 in0.0 mm
03:02 AM 56.0°F13.3°C 54.2°F12.3°C 94% Calm Calm -- 30.21 in1023.0 mb 0.00 in0.0 mm 0.00 in0.0 mm 0.00 in0.0 mm
03:07 AM 56.0°F13.3°C 54.2°F12.3°C 94% Calm Calm -- 30.21 in1023.0 mb 0.00 in0.0 mm 0.00 in0.0 mm 0.00 in0.0 mm
03:12 AM 55.8°F13.2°C 54.0°F12.2°C 94% Calm Calm -- 30.21 in1023.0 mb 0.00 in0.0 mm 0.00 in0.0 mm 0.00 in0.0 mm
03:17 AM 55.8°F13.2°C 54.0°F12.2°C 94% Calm Calm -- 30.21 in1023.0 mb 0.00 in0.0 mm 0.00 in0.0 mm 0.00 in0.0 mm
03:22 AM 55.8°F13.2°C 54.0°F12.2°C 94% Calm Calm -- 30.21 in1023.0 mb 0.00 in0.0 mm 0.00 in0.0 mm 0.00 in0.0 mm
03:27 AM 55.8°F13.2°C 54.0°F12.2°C 94% Calm Calm -- 30.21 in1023.0 mb 0.01 in0.3 mm 0.12 in3.0 mm 0.01 in0.3 mm
03:32 AM 55.8°F13.2°C 54.0°F12.2°C 94% Calm Calm -- 30.21 in1023.0 mb 0.01 in0.3 mm 0.00 in0.0 mm 0.01 in0.3 mm
03:37 AM 55.8°F13.2°C 54.0°F12.2°C 94% Calm Calm -- 30.21 in1023.0 mb 0.02 in0.5 mm 0.12 in3.0 mm 0.02 in0.5 mm
03:42 AM 55.7°F13.2°C 54.3°F12.4°C 95% Calm Calm -- 30.21 in1023.0 mb 0.02 in0.5 mm 0.00 in0.0 mm 0.02 in0.5 mm
03:47 AM 55.7°F13.2°C 54.3°F12.4°C 95% Calm Calm -- 30.21 in1023.0 mb 0.03 in0.8 mm 0.12 in3.0 mm 0.03 in0.8 mm
03:52 AM 55.8°F13.2°C 54.3°F12.4°C 95% 1.0 mph S1.6 kmh S -- 30.20 in1022.7 mb 0.03 in0.8 mm 0.00 in0.0 mm 0.03 in0.8 mm
03:57 AM 55.6°F13.1°C 54.2°F12.3°C 95% 1.0 mph SSE1.6 kmh SSE -- 30.20 in1022.7 mb 0.03 in0.8 mm 0.00 in0.0 mm 0.03 in0.8 mm
04:02 AM 55.6°F13.1°C 54.2°F12.3°C 95% Calm Calm -- 30.20 in1022.7 mb 0.03 in0.8 mm 0.00 in0.0 mm 0.03 in0.8 mm
04:07 AM 55.6°F13.1°C 54.2°F12.3°C 95% Calm Calm -- 30.20 in1022.7 mb 0.04 in1.0 mm 0.12 in3.0 mm 0.04 in1.0 mm
04:12 AM 55.5°F13.1°C 54.2°F12.3°C 95% Calm Calm -- 30.19 in1022.4 mb 0.04 in1.0 mm 0.00 in0.0 mm 0.04 in1.0 mm
04:17 AM 55.6°F13.1°C 54.2°F12.3°C 95% Calm Calm -- 30.20 in1022.7 mb 0.03 in0.8 mm 0.00 in0.0 mm 0.04 in1.0 mm
04:27 AM 55.7°F13.2°C 54.3°F12.4°C 95% 1.0 mph SSE1.6 kmh SSE -- 30.20 in1022.7 mb 0.04 in1.0 mm 0.06 in1.5 mm 0.05 in1.3 mm
04:32 AM 55.7°F13.2°C 54.3°F12.4°C 95% Calm Calm -- 30.20 in1022.7 mb 0.05 in1.3 mm 0.12 in3.0 mm 0.06 in1.5 mm
04:37 AM 55.8°F13.2°C 54.6°F12.6°C 96% 1.0 mph SSE1.6 kmh SSE -- 30.20 in1022.7 mb 0.04 in1.0 mm 0.00 in0.0 mm 0.07 in1.8 mm
04:42 AM 55.8°F13.2°C 54.6°F12.6°C 96% 1.0 mph SSE1.6 kmh SSE -- 30.20 in1022.7 mb 0.04 in1.0 mm 0.00 in0.0 mm 0.07 in1.8 mm
04:47 AM 55.8°F13.2°C 54.6°F12.6°C 96% 1.0 mph SSE1.6 kmh SSE -- 30.20 in1022.7 mb 0.04 in1.0 mm 0.00 in0.0 mm 0.07 in1.8 mm
04:52 AM 55.7°F13.2°C 54.6°F12.6°C 96% Calm Calm -- 30.19 in1022.4 mb 0.04 in1.0 mm 0.00 in0.0 mm 0.07 in1.8 mm
04:57 AM 55.8°F13.2°C 54.6°F12.6°C 96% Calm Calm -- 30.20 in1022.7 mb 0.04 in1.0 mm 0.00 in0.0 mm 0.08 in2.0 mm
05:02 AM 55.9°F13.3°C 54.8°F12.7°C 96% Calm Calm -- 30.19 in1022.4 mb 0.04 in1.0 mm 0.00 in0.0 mm 0.08 in2.0 mm
05:07 AM 55.8°F13.2°C 54.6°F12.6°C 96% Calm Calm -- 30.19 in1022.4 mb 0.04 in1.0 mm 0.00 in0.0 mm 0.08 in2.0 mm
05:12 AM 55.9°F13.3°C 54.8°F12.7°C 96% Calm Calm -- 30.19 in1022.4 mb 0.05 in1.3 mm 0.12 in3.0 mm 0.09 in2.3 mm
05:17 AM 56.1°F13.4°C 55.0°F12.8°C 96% Calm Calm -- 30.18 in1022.0 mb 0.04 in1.0 mm 0.00 in0.0 mm 0.09 in2.3 mm
05:22 AM 56.0°F13.3°C 54.8°F12.7°C 96% 1.0 mph S1.6 kmh S -- 30.18 in1022.0 mb 0.04 in1.0 mm 0.00 in0.0 mm 0.09 in2.3 mm
05:27 AM 56.1°F13.4°C 55.0°F12.8°C 96% Calm Calm -- 30.18 in1022.0 mb 0.03 in0.8 mm 0.00 in0.0 mm 0.10 in2.5 mm
05:32 AM 56.1°F13.4°C 55.0°F12.8°C 96% 2.0 mph SSE3.2 kmh SSE -- 30.19 in1022.4 mb 0.03 in0.8 mm 0.00 in0.0 mm 0.10 in2.5 mm
05:37 AM 56.3°F13.5°C 55.2°F12.9°C 96% 1.0 mph SSE1.6 kmh SSE -- 30.19 in1022.4 mb 0.04 in1.0 mm 0.12 in3.0 mm 0.11 in2.8 mm
05:42 AM 56.2°F13.4°C 55.3°F12.9°C 97% 1.0 mph S1.6 kmh S -- 30.19 in1022.4 mb 0.04 in1.0 mm 0.00 in0.0 mm 0.11 in2.8 mm
05:47 AM 56.3°F13.5°C 55.5°F13.1°C 97% 1.0 mph SE1.6 kmh SE -- 30.18 in1022.0 mb 0.03 in0.8 mm 0.00 in0.0 mm 0.11 in2.8 mm
05:52 AM 56.4°F13.6°C 55.6°F13.1°C 97% 3.0 mph SSE4.8 kmh SSE -- 30.18 in1022.0 mb 0.03 in0.8 mm 0.00 in0.0 mm 0.11 in2.8 mm
05:57 AM 56.3°F13.5°C 55.5°F13.1°C 97% 3.0 mph SSE4.8 kmh SSE -- 30.18 in1022.0 mb 0.03 in0.8 mm 0.00 in0.0 mm 0.11 in2.8 mm
06:02 AM 56.3°F13.5°C 55.5°F13.1°C 97% 2.0 mph SSE3.2 kmh SSE -- 30.18 in1022.0 mb 0.03 in0.8 mm 0.00 in0.0 mm 0.11 in2.8 mm
06:07 AM 56.2°F13.4°C 55.3°F12.9°C 97% 2.0 mph SSE3.2 kmh SSE -- 30.19 in1022.4 mb 0.02 in0.5 mm 0.00 in0.0 mm 0.11 in2.8 mm
06:12 AM 56.3°F13.5°C 55.5°F13.1°C 97% 1.0 mph SSE1.6 kmh SSE -- 30.18 in1022.0 mb 0.02 in0.5 mm 0.00 in0.0 mm 0.11 in2.8 mm
06:17 AM 56.3°F13.5°C 55.5°F13.1°C 97% 2.0 mph SSE3.2 kmh SSE -- 30.18 in1022.0 mb 0.01 in0.3 mm 0.00 in0.0 mm 0.11 in2.8 mm
06:22 AM 56.3°F13.5°C 55.5°F13.1°C 97% Calm Calm -- 30.18 in1022.0 mb 0.02 in0.5 mm 0.12 in3.0 mm 0.12 in3.0 mm
06:27 AM 56.3°F13.5°C 55.5°F13.1°C 97% 2.0 mph S3.2 kmh S -- 30.18 in1022.0 mb 0.01 in0.3 mm 0.00 in0.0 mm 0.12 in3.0 mm
06:32 AM 56.4°F13.6°C 55.6°F13.1°C 97% 1.0 mph S1.6 kmh S -- 30.18 in1022.0 mb 0.01 in0.3 mm 0.00 in0.0 mm 0.12 in3.0 mm
06:37 AM 56.3°F13.5°C 55.5°F13.1°C 97% 3.0 mph SSE4.8 kmh SSE -- 30.18 in1022.0 mb 0.01 in0.3 mm 0.00 in0.0 mm 0.12 in3.0 mm
06:42 AM 56.3°F13.5°C 55.5°F13.1°C 97% 1.0 mph SSE1.6 kmh SSE -- 30.18 in1022.0 mb 0.01 in0.3 mm 0.00 in0.0 mm 0.12 in3.0 mm
06:47 AM 56.4°F13.6°C 55.6°F13.1°C 97% 2.0 mph SSE3.2 kmh SSE -- 30.18 in1022.0 mb 0.01 in0.3 mm 0.00 in0.0 mm 0.12 in3.0 mm
06:52 AM 56.4°F13.6°C 55.6°F13.1°C 97% 2.0 mph SSE3.2 kmh SSE -- 30.18 in1022.0 mb 0.01 in0.3 mm 0.00 in0.0 mm 0.12 in3.0 mm
06:57 AM 56.5°F13.6°C 55.6°F13.1°C 97% Calm Calm -- 30.18 in1022.0 mb 0.01 in0.3 mm 0.00 in0.0 mm 0.12 in3.0 mm
07:02 AM 56.6°F13.7°C 55.8°F13.2°C 97% 2.0 mph S3.2 kmh S -- 30.18 in1022.0 mb 0.01 in0.3 mm 0.00 in0.0 mm 0.12 in3.0 mm
07:07 AM 56.5°F13.6°C 55.6°F13.1°C 97% 2.0 mph S3.2 kmh S -- 30.18 in1022.0 mb 0.01 in0.3 mm 0.00 in0.0 mm 0.12 in3.0 mm
07:12 AM 56.6°F13.7°C 55.8°F13.2°C 97% 1.0 mph SSE1.6 kmh SSE -- 30.18 in1022.0 mb 0.01 in0.3 mm 0.00 in0.0 mm 0.12 in3.0 mm
07:17 AM 56.5°F13.6°C 55.6°F13.1°C 97% 2.0 mph SSE3.2 kmh SSE -- 30.17 in1021.7 mb 0.00 in0.0 mm 0.00 in0.0 mm 0.12 in3.0 mm
07:22 AM 56.6°F13.7°C 56.1°F13.4°C 98% 2.0 mph SSE3.2 kmh SSE -- 30.17 in1021.7 mb 0.00 in0.0 mm 0.00 in0.0 mm 0.12 in3.0 mm
07:27 AM 56.6°F13.7°C 56.1°F13.4°C 98% 2.0 mph S3.2 kmh S -- 30.17 in1021.7 mb 0.01 in0.3 mm 0.12 in3.0 mm 0.13 in3.3 mm
07:32 AM 56.5°F13.6°C 55.9°F13.3°C 98% 2.0 mph SSE3.2 kmh SSE -- 30.17 in1021.7 mb 0.01 in0.3 mm 0.00 in0.0 mm 0.13 in3.3 mm
07:37 AM 56.7°F13.7°C 56.1°F13.4°C 98% 2.0 mph SE3.2 kmh SE -- 30.17 in1021.7 mb 0.01 in0.3 mm 0.00 in0.0 mm 0.13 in3.3 mm
07:42 AM 56.7°F13.7°C 56.1°F13.4°C 98% 1.0 mph S1.6 kmh S -- 30.17 in1021.7 mb 0.01 in0.3 mm 0.00 in0.0 mm 0.13 in3.3 mm
07:47 AM 56.7°F13.7°C 56.1°F13.4°C 98% 2.0 mph S3.2 kmh S -- 30.17 in1021.7 mb 0.01 in0.3 mm 0.00 in0.0 mm 0.13 in3.3 mm
07:52 AM 56.9°F13.8°C 56.3°F13.5°C 98% 1.0 mph S1.6 kmh S -- 30.17 in1021.7 mb 0.02 in0.5 mm 0.12 in3.0 mm 0.14 in3.6 mm
07:57 AM 56.9°F13.8°C 56.3°F13.5°C 98% 2.0 mph SSE3.2 kmh SSE -- 30.17 in1021.7 mb 0.02 in0.5 mm 0.00 in0.0 mm 0.14 in3.6 mm
08:02 AM 57.0°F13.9°C 56.5°F13.6°C 98% Calm Calm -- 30.17 in1021.7 mb 0.02 in0.5 mm 0.00 in0.0 mm 0.14 in3.6 mm
08:07 AM 57.1°F13.9°C 56.5°F13.6°C 98% 2.0 mph S3.2 kmh S -- 30.17 in1021.7 mb 0.03 in0.8 mm 0.12 in3.0 mm 0.15 in3.8 mm
08:12 AM 57.1°F13.9°C 56.5°F13.6°C 98% 2.0 mph S3.2 kmh S -- 30.17 in1021.7 mb 0.03 in0.8 mm 0.00 in0.0 mm 0.15 in3.8 mm
08:17 AM 57.1°F13.9°C 56.5°F13.6°C 98% Calm Calm -- 30.17 in1021.7 mb 0.02 in0.5 mm 0.00 in0.0 mm 0.15 in3.8 mm
08:22 AM 57.2°F14.0°C 56.6°F13.7°C 98% 2.0 mph S3.2 kmh S -- 30.17 in1021.7 mb 0.02 in0.5 mm 0.00 in0.0 mm 0.15 in3.8 mm
08:27 AM 57.4°F14.1°C 56.8°F13.8°C 98% 1.0 mph S1.6 kmh S -- 30.17 in1021.7 mb 0.02 in0.5 mm 0.00 in0.0 mm 0.15 in3.8 mm
08:32 AM 57.5°F14.2°C 57.0°F13.9°C 98% 1.0 mph SSE1.6 kmh SSE -- 30.17 in1021.7 mb 0.02 in0.5 mm 0.00 in0.0 mm 0.15 in3.8 mm
08:37 AM 57.7°F14.3°C 57.2°F14.0°C 98% 2.0 mph SSE3.2 kmh SSE -- 30.17 in1021.7 mb 0.02 in0.5 mm 0.00 in0.0 mm 0.15 in3.8 mm
08:42 AM 57.8°F14.3°C 57.2°F14.0°C 98% 1.0 mph SE1.6 kmh SE -- 30.17 in1021.7 mb 0.02 in0.5 mm 0.00 in0.0 mm 0.15 in3.8 mm
08:47 AM 58.1°F14.5°C 57.5°F14.2°C 98% Calm Calm -- 30.17 in1021.7 mb 0.01 in0.3 mm 0.00 in0.0 mm 0.15 in3.8 mm
08:52 AM 58.4°F14.7°C 57.9°F14.4°C 98% 3.0 mph S4.8 kmh S -- 30.17 in1021.7 mb 0.01 in0.3 mm 0.00 in0.0 mm 0.15 in3.8 mm
08:57 AM 58.8°F14.9°C 58.3°F14.6°C 98% 2.0 mph SSE3.2 kmh SSE -- 30.17 in1021.7 mb 0.00 in0.0 mm 0.00 in0.0 mm 0.15 in3.8 mm
09:02 AM 59.0°F15.0°C 58.4°F14.7°C 98% 4.0 mph SSW6.4 kmh SSW -- 30.18 in1022.0 mb 0.01 in0.3 mm 0.01 in0.3 mm 0.16 in4.1 mm
09:07 AM 59.3°F15.2°C 58.8°F14.9°C 98% 3.0 mph S4.8 kmh S -- 30.18 in1022.0 mb 0.01 in0.3 mm 0.00 in0.0 mm 0.16 in4.1 mm
09:12 AM 59.6°F15.3°C 59.0°F15.0°C 98% 3.0 mph S4.8 kmh S -- 30.18 in1022.0 mb 0.01 in0.3 mm 0.00 in0.0 mm 0.16 in4.1 mm
09:22 AM 60.1°F15.6°C 59.5°F15.3°C 98% 3.0 mph S4.8 kmh S -- 30.18 in1022.0 mb 0.01 in0.3 mm 0.00 in0.0 mm 0.16 in4.1 mm
09:27 AM 60.4°F15.8°C 60.2°F15.7°C 99% 3.0 mph S4.8 kmh S -- 30.18 in1022.0 mb 0.01 in0.3 mm 0.00 in0.0 mm 0.16 in4.1 mm
09:32 AM 60.6°F15.9°C 60.0°F15.6°C 98% 7.0 mph S11.3 kmh S -- 30.18 in1022.0 mb 0.01 in0.3 mm 0.00 in0.0 mm 0.16 in4.1 mm
09:37 AM 60.9°F16.1°C 60.4°F15.8°C 98% 4.0 mph S6.4 kmh S -- 30.18 in1022.0 mb 0.01 in0.3 mm 0.00 in0.0 mm 0.16 in4.1 mm
09:42 AM 61.1°F16.2°C 60.6°F15.9°C 98% 6.0 mph S9.7 kmh S -- 30.17 in1021.7 mb 0.01 in0.3 mm 0.00 in0.0 mm 0.16 in4.1 mm
09:47 AM 61.0°F16.1°C 60.4°F15.8°C 98% 7.0 mph S11.3 kmh S -- 30.18 in1022.0 mb 0.01 in0.3 mm 0.00 in0.0 mm 0.16 in4.1 mm
09:52 AM 61.0°F16.1°C 60.4°F15.8°C 98% 5.0 mph SE8.0 kmh SE -- 30.18 in1022.0 mb 0.01 in0.3 mm 0.00 in0.0 mm 0.16 in4.1 mm
09:57 AM 61.1°F16.2°C 60.6°F15.9°C 98% 4.0 mph S6.4 kmh S -- 30.18 in1022.0 mb 0.00 in0.0 mm 0.00 in0.0 mm 0.16 in4.1 mm
10:02 AM 61.1°F16.2°C 60.6°F15.9°C 98% 4.0 mph S6.4 kmh S -- 30.18 in1022.0 mb 0.00 in0.0 mm 0.00 in0.0 mm 0.16 in4.1 mm
10:07 AM 61.3°F16.3°C 60.8°F16.0°C 98% 4.0 mph S6.4 kmh S -- 30.17 in1021.7 mb 0.00 in0.0 mm 0.00 in0.0 mm 0.16 in4.1 mm
10:12 AM 61.4°F16.3°C 60.8°F16.0°C 98% 5.0 mph S8.0 kmh S -- 30.17 in1021.7 mb 0.00 in0.0 mm 0.00 in0.0 mm 0.16 in4.1 mm
10:17 AM 61.4°F16.3°C 60.8°F16.0°C 98% 2.0 mph S3.2 kmh S -- 30.17 in1021.7 mb 0.00 in0.0 mm 0.00 in0.0 mm 0.16 in4.1 mm
10:22 AM 61.5°F16.4°C 60.9°F16.1°C 98% 6.0 mph SSE9.7 kmh SSE -- 30.17 in1021.7 mb 0.00 in0.0 mm 0.00 in0.0 mm 0.16 in4.1 mm
10:27 AM 61.4°F16.3°C 60.5°F15.8°C 97% 4.0 mph S6.4 kmh S -- 30.17 in1021.7 mb 0.00 in0.0 mm 0.00 in0.0 mm 0.16 in4.1 mm
10:32 AM 61.4°F16.3°C 60.5°F15.8°C 97% 7.0 mph SSW11.3 kmh SSW -- 30.18 in1022.0 mb 0.00 in0.0 mm 0.00 in0.0 mm 0.16 in4.1 mm
10:37 AM 61.6°F16.4°C 60.7°F15.9°C 97% 8.0 mph SW12.9 kmh SW -- 30.17 in1021.7 mb 0.00 in0.0 mm 0.00 in0.0 mm 0.16 in4.1 mm
10:42 AM 61.7°F16.5°C 60.8°F16.0°C 97% 8.0 mph S12.9 kmh S -- 30.17 in1021.7 mb 0.00 in0.0 mm 0.00 in0.0 mm 0.16 in4.1 mm
10:47 AM 61.7°F16.5°C 60.8°F16.0°C 97% 4.0 mph S6.4 kmh S -- 30.17 in1021.7 mb 0.00 in0.0 mm 0.00 in0.0 mm 0.16 in4.1 mm
10:52 AM 62.0°F16.7°C 61.2°F16.2°C 97% 3.0 mph S4.8 kmh S -- 30.16 in1021.3 mb 0.00 in0.0 mm 0.00 in0.0 mm 0.16 in4.1 mm
10:57 AM 62.2°F16.8°C 61.4°F16.3°C 97% 5.0 mph S8.0 kmh S -- 30.16 in1021.3 mb 0.00 in0.0 mm 0.00 in0.0 mm 0.16 in4.1 mm
11:02 AM 62.4°F16.9°C 61.3°F16.3°C 96% 3.0 mph SSE4.8 kmh SSE -- 30.16 in1021.3 mb 0.00 in0.0 mm 0.00 in0.0 mm 0.16 in4.1 mm
11:07 AM 62.4°F16.9°C 61.3°F16.3°C 96% 5.0 mph S8.0 kmh S -- 30.16 in1021.3 mb 0.00 in0.0 mm 0.00 in0.0 mm 0.16 in4.1 mm
11:12 AM 62.4°F16.9°C 61.0°F16.1°C 95% 5.0 mph S8.0 kmh S -- 30.15 in1021.0 mb 0.00 in0.0 mm 0.00 in0.0 mm 0.16 in4.1 mm
11:17 AM 62.6°F17.0°C 61.4°F16.3°C 96% 4.0 mph S6.4 kmh S -- 30.15 in1021.0 mb 0.00 in0.0 mm 0.00 in0.0 mm 0.16 in4.1 mm
11:22 AM 62.7°F17.1°C 61.3°F16.3°C 95% 5.0 mph S8.0 kmh S -- 30.15 in1021.0 mb 0.00 in0.0 mm 0.00 in0.0 mm 0.16 in4.1 mm
11:27 AM 62.7°F17.1°C 61.3°F16.3°C 95% 3.0 mph SSW4.8 kmh SSW -- 30.15 in1021.0 mb 0.00 in0.0 mm 0.00 in0.0 mm 0.16 in4.1 mm
11:32 AM 62.7°F17.1°C 61.3°F16.3°C 95% 7.0 mph S11.3 kmh S -- 30.14 in1020.7 mb 0.00 in0.0 mm 0.00 in0.0 mm 0.16 in4.1 mm
11:37 AM 62.9°F17.2°C 61.5°F16.4°C 95% 6.0 mph SSE9.7 kmh SSE -- 30.14 in1020.7 mb 0.00 in0.0 mm 0.00 in0.0 mm 0.16 in4.1 mm
11:42 AM 63.1°F17.3°C 61.7°F16.5°C 95% 5.0 mph S8.0 kmh S -- 30.13 in1020.3 mb 0.00 in0.0 mm 0.00 in0.0 mm 0.16 in4.1 mm
11:47 AM 63.0°F17.2°C 61.2°F16.2°C 94% 4.0 mph S6.4 kmh S -- 30.13 in1020.3 mb 0.00 in0.0 mm 0.00 in0.0 mm 0.16 in4.1 mm
11:52 AM 63.3°F17.4°C 61.5°F16.4°C 94% 4.0 mph SW6.4 kmh SW -- 30.13 in1020.3 mb 0.00 in0.0 mm 0.00 in0.0 mm 0.16 in4.1 mm
11:57 AM 63.3°F17.4°C 61.5°F16.4°C 94% 6.0 mph SSE9.7 kmh SSE -- 30.13 in1020.3 mb 0.00 in0.0 mm 0.00 in0.0 mm 0.16 in4.1 mm
12:02 PM 63.5°F17.5°C 61.7°F16.5°C 94% 5.0 mph S8.0 kmh S -- 30.12 in1020.0 mb 0.00 in0.0 mm 0.00 in0.0 mm 0.16 in4.1 mm
12:07 PM 63.5°F17.5°C 61.7°F16.5°C 94% 4.0 mph S6.4 kmh S -- 30.12 in1020.0 mb 0.00 in0.0 mm 0.00 in0.0 mm 0.16 in4.1 mm
12:12 PM 63.7°F17.6°C 61.9°F16.6°C 94% 4.0 mph S6.4 kmh S -- 30.12 in1020.0 mb 0.00 in0.0 mm 0.00 in0.0 mm 0.16 in4.1 mm
12:17 PM 63.9°F17.7°C 62.1°F16.7°C 94% 2.0 mph S3.2 kmh S -- 30.12 in1020.0 mb 0.00 in0.0 mm 0.00 in0.0 mm 0.16 in4.1 mm
12:22 PM 64.1°F17.8°C 62.0°F16.7°C 93% 3.0 mph S4.8 kmh S -- 30.12 in1020.0 mb 0.00 in0.0 mm 0.00 in0.0 mm 0.16 in4.1 mm
12:27 PM 64.3°F17.9°C 62.1°F16.7°C 93% 1.0 mph SSE1.6 kmh SSE -- 30.11 in1019.6 mb 0.00 in0.0 mm 0.00 in0.0 mm 0.16 in4.1 mm
12:32 PM 64.4°F18.0°C 62.3°F16.8°C 93% 3.0 mph S4.8 kmh S -- 30.11 in1019.6 mb 0.00 in0.0 mm 0.00 in0.0 mm 0.16 in4.1 mm
12:37 PM 64.5°F18.1°C 62.5°F16.9°C 93% 2.0 mph SW3.2 kmh SW -- 30.10 in1019.3 mb 0.00 in0.0 mm 0.00 in0.0 mm 0.16 in4.1 mm
12:42 PM 64.7°F18.2°C 62.7°F17.1°C 93% 3.0 mph SSE4.8 kmh SSE -- 30.10 in1019.3 mb 0.00 in0.0 mm 0.00 in0.0 mm 0.16 in4.1 mm
12:47 PM 64.8°F18.2°C 62.7°F17.1°C 93% 2.0 mph S3.2 kmh S -- 30.10 in1019.3 mb 0.00 in0.0 mm 0.00 in0.0 mm 0.16 in4.1 mm
12:52 PM 64.9°F18.3°C 62.9°F17.2°C 93% 4.0 mph S6.4 kmh S -- 30.09 in1019.0 mb 0.00 in0.0 mm 0.00 in0.0 mm 0.16 in4.1 mm
12:57 PM 65.0°F18.3°C 62.9°F17.2°C 93% 4.0 mph S6.4 kmh S -- 30.09 in1019.0 mb 0.00 in0.0 mm 0.00 in0.0 mm 0.16 in4.1 mm
01:02 PM 65.2°F18.4°C 63.0°F17.2°C 93% 2.0 mph S3.2 kmh S -- 30.09 in1019.0 mb 0.00 in0.0 mm 0.00 in0.0 mm 0.16 in4.1 mm
01:07 PM 65.2°F18.4°C 62.7°F17.1°C 92% 2.0 mph S3.2 kmh S -- 30.08 in1018.6 mb 0.00 in0.0 mm 0.00 in0.0 mm 0.16 in4.1 mm
01:12 PM 65.4°F18.6°C 63.1°F17.3°C 92% 6.0 mph SSW9.7 kmh SSW -- 30.08 in1018.6 mb 0.00 in0.0 mm 0.00 in0.0 mm 0.16 in4.1 mm
01:17 PM 65.3°F18.5°C 62.9°F17.2°C 92% 5.0 mph S8.0 kmh S -- 30.08 in1018.6 mb 0.00 in0.0 mm 0.00 in0.0 mm 0.16 in4.1 mm
01:22 PM 65.7°F18.7°C 63.3°F17.4°C 92% 7.0 mph S11.3 kmh S -- 30.07 in1018.3 mb 0.00 in0.0 mm 0.00 in0.0 mm 0.16 in4.1 mm
01:27 PM 65.8°F18.8°C 63.4°F17.4°C 92% 4.0 mph S6.4 kmh S -- 30.06 in1017.9 mb 0.00 in0.0 mm 0.00 in0.0 mm 0.16 in4.1 mm
01:32 PM 65.8°F18.8°C 63.4°F17.4°C 92% 2.0 mph SSE3.2 kmh SSE -- 30.06 in1017.9 mb 0.00 in0.0 mm 0.00 in0.0 mm 0.16 in4.1 mm
01:37 PM 65.6°F18.7°C 63.3°F17.4°C 92% 2.0 mph SSW3.2 kmh SSW -- 30.05 in1017.6 mb 0.00 in0.0 mm 0.00 in0.0 mm 0.16 in4.1 mm
01:42 PM 65.4°F18.6°C 63.1°F17.3°C 92% 3.0 mph S4.8 kmh S -- 30.05 in1017.6 mb 0.00 in0.0 mm 0.00 in0.0 mm 0.16 in4.1 mm
01:47 PM 65.1°F18.4°C 63.0°F17.2°C 93% 2.0 mph S3.2 kmh S -- 30.04 in1017.3 mb 0.00 in0.0 mm 0.00 in0.0 mm 0.16 in4.1 mm
01:52 PM 65.1°F18.4°C 63.0°F17.2°C 93% 4.0 mph SW6.4 kmh SW -- 30.05 in1017.6 mb 0.00 in0.0 mm 0.00 in0.0 mm 0.16 in4.1 mm
01:57 PM 65.2°F18.4°C 63.3°F17.4°C 94% 3.0 mph SSW4.8 kmh SSW -- 30.04 in1017.3 mb 0.00 in0.0 mm 0.00 in0.0 mm 0.16 in4.1 mm
02:02 PM 65.4°F18.6°C 63.7°F17.6°C 94% 4.0 mph S6.4 kmh S -- 30.04 in1017.3 mb 0.00 in0.0 mm 0.00 in0.0 mm 0.16 in4.1 mm
02:07 PM 65.7°F18.7°C 63.9°F17.7°C 94% 2.0 mph S3.2 kmh S -- 30.04 in1017.3 mb 0.00 in0.0 mm 0.00 in0.0 mm 0.16 in4.1 mm
02:12 PM 65.8°F18.8°C 64.1°F17.8°C 94% 2.0 mph S3.2 kmh S -- 30.04 in1017.3 mb 0.00 in0.0 mm 0.00 in0.0 mm 0.16 in4.1 mm
02:17 PM 66.3°F19.1°C 64.3°F17.9°C 93% 4.0 mph S6.4 kmh S -- 30.03 in1016.9 mb 0.00 in0.0 mm 0.00 in0.0 mm 0.16 in4.1 mm
02:22 PM 66.9°F19.4°C 64.5°F18.1°C 92% 3.0 mph SSE4.8 kmh SSE -- 30.04 in1017.3 mb 0.00 in0.0 mm 0.00 in0.0 mm 0.16 in4.1 mm
02:27 PM 67.1°F19.5°C 64.4°F18.0°C 91% 3.0 mph S4.8 kmh S -- 30.04 in1017.3 mb 0.00 in0.0 mm 0.00 in0.0 mm 0.16 in4.1 mm
02:32 PM 67.1°F19.5°C 64.4°F18.0°C 91% 4.0 mph S6.4 kmh S -- 30.04 in1017.3 mb 0.00 in0.0 mm 0.00 in0.0 mm 0.16 in4.1 mm
02:37 PM 67.2°F19.6°C 64.5°F18.1°C 91% 4.0 mph SSE6.4 kmh SSE -- 30.04 in1017.3 mb 0.00 in0.0 mm 0.00 in0.0 mm 0.16 in4.1 mm
02:42 PM 67.3°F19.6°C 64.2°F17.9°C 90% 4.0 mph SSW6.4 kmh SSW -- 30.04 in1017.3 mb 0.00 in0.0 mm 0.00 in0.0 mm 0.16 in4.1 mm
02:47 PM 67.3°F19.6°C 64.2°F17.9°C 90% 2.0 mph SW3.2 kmh SW -- 30.04 in1017.3 mb 0.00 in0.0 mm 0.00 in0.0 mm 0.16 in4.1 mm
02:52 PM 67.4°F19.7°C 64.4°F18.0°C 90% 3.0 mph SW4.8 kmh SW -- 30.04 in1017.3 mb 0.00 in0.0 mm 0.00 in0.0 mm 0.16 in4.1 mm
02:57 PM 67.4°F19.7°C 64.1°F17.8°C 89% 4.0 mph SSW6.4 kmh SSW -- 30.04 in1017.3 mb 0.00 in0.0 mm 0.00 in0.0 mm 0.16 in4.1 mm
03:02 PM 67.5°F19.7°C 64.1°F17.8°C 89% 3.0 mph SW4.8 kmh SW -- 30.04 in1017.3 mb 0.00 in0.0 mm 0.00 in0.0 mm 0.16 in4.1 mm
03:07 PM 67.5°F19.7°C 64.1°F17.8°C 89% 6.0 mph SSW9.7 kmh SSW -- 30.04 in1017.3 mb 0.00 in0.0 mm 0.00 in0.0 mm 0.16 in4.1 mm
03:12 PM 67.6°F19.8°C 64.3°F17.9°C 89% 3.0 mph SSW4.8 kmh SSW -- 30.04 in1017.3 mb 0.00 in0.0 mm 0.00 in0.0 mm 0.16 in4.1 mm
03:17 PM 67.7°F19.8°C 64.3°F17.9°C 89% 3.0 mph S4.8 kmh S -- 30.04 in1017.3 mb 0.00 in0.0 mm 0.00 in0.0 mm 0.16 in4.1 mm
03:22 PM 67.8°F19.9°C 64.1°F17.8°C 88% 3.0 mph SSW4.8 kmh SSW -- 30.04 in1017.3 mb 0.00 in0.0 mm 0.00 in0.0 mm 0.16 in4.1 mm
03:27 PM 67.9°F19.9°C 64.1°F17.8°C 88% 5.0 mph S8.0 kmh S -- 30.03 in1016.9 mb 0.00 in0.0 mm 0.00 in0.0 mm 0.16 in4.1 mm
03:32 PM 67.7°F19.8°C 63.9°F17.7°C 88% 4.0 mph S6.4 kmh S -- 30.03 in1016.9 mb 0.00 in0.0 mm 0.00 in0.0 mm 0.16 in4.1 mm
03:37 PM 67.5°F19.7°C 63.8°F17.7°C 88% 2.0 mph SSW3.2 kmh SSW -- 30.03 in1016.9 mb 0.00 in0.0 mm 0.00 in0.0 mm 0.16 in4.1 mm
03:42 PM 67.5°F19.7°C 64.1°F17.8°C 89% 3.0 mph S4.8 kmh S -- 30.03 in1016.9 mb 0.00 in0.0 mm 0.00 in0.0 mm 0.16 in4.1 mm
03:47 PM 67.5°F19.7°C 64.1°F17.8°C 89% 7.0 mph SSW11.3 kmh SSW -- 30.03 in1016.9 mb 0.00 in0.0 mm 0.00 in0.0 mm 0.16 in4.1 mm
03:52 PM 67.3°F19.6°C 63.9°F17.7°C 89% 3.0 mph S4.8 kmh S -- 30.03 in1016.9 mb 0.00 in0.0 mm 0.00 in0.0 mm 0.16 in4.1 mm
03:57 PM 67.2°F19.6°C 63.9°F17.7°C 89% 3.0 mph SW4.8 kmh SW -- 30.03 in1016.9 mb 0.00 in0.0 mm 0.00 in0.0 mm 0.16 in4.1 mm
04:02 PM 67.1°F19.5°C 63.4°F17.4°C 88% 5.0 mph S8.0 kmh S -- 30.02 in1016.6 mb 0.00 in0.0 mm 0.00 in0.0 mm 0.16 in4.1 mm
04:07 PM 67.2°F19.6°C 63.6°F17.6°C 88% 3.0 mph SSW4.8 kmh SSW -- 30.02 in1016.6 mb 0.00 in0.0 mm 0.00 in0.0 mm 0.16 in4.1 mm
04:12 PM 67.1°F19.5°C 63.1°F17.3°C 87% 6.0 mph SE9.7 kmh SE -- 30.02 in1016.6 mb 0.00 in0.0 mm 0.00 in0.0 mm 0.16 in4.1 mm
04:17 PM 67.0°F19.4°C 63.2°F17.3°C 88% 6.0 mph SW9.7 kmh SW -- 30.02 in1016.6 mb 0.00 in0.0 mm 0.00 in0.0 mm 0.16 in4.1 mm
04:22 PM 66.9°F19.4°C 63.6°F17.6°C 89% 3.0 mph S4.8 kmh S -- 30.02 in1016.6 mb 0.00 in0.0 mm 0.00 in0.0 mm 0.16 in4.1 mm
04:27 PM 66.5°F19.2°C 63.5°F17.5°C 90% 5.0 mph S8.0 kmh S -- 30.02 in1016.6 mb 0.00 in0.0 mm 0.00 in0.0 mm 0.16 in4.1 mm
04:32 PM 66.0°F18.9°C 63.3°F17.4°C 91% 3.0 mph SW4.8 kmh SW -- 30.02 in1016.6 mb 0.00 in0.0 mm 0.00 in0.0 mm 0.16 in4.1 mm
04:37 PM 65.7°F18.7°C 63.3°F17.4°C 92% 7.0 mph S11.3 kmh S -- 30.02 in1016.6 mb 0.01 in0.3 mm 0.12 in3.0 mm 0.17 in4.3 mm
04:42 PM 65.3°F18.5°C 63.2°F17.3°C 93% 7.0 mph S11.3 kmh S -- 30.02 in1016.6 mb 0.01 in0.3 mm 0.00 in0.0 mm 0.17 in4.3 mm
04:47 PM 65.1°F18.4°C 63.3°F17.4°C 94% 9.0 mph S14.5 kmh S -- 30.03 in1016.9 mb 0.02 in0.5 mm 0.12 in3.0 mm 0.18 in4.6 mm
04:52 PM 65.0°F18.3°C 63.2°F17.3°C 94% 7.0 mph SSW11.3 kmh SSW -- 30.02 in1016.6 mb 0.02 in0.5 mm 0.00 in0.0 mm 0.18 in4.6 mm
04:57 PM 64.8°F18.2°C 63.0°F17.2°C 94% 4.0 mph SSW6.4 kmh SSW -- 30.02 in1016.6 mb 0.02 in0.5 mm 0.00 in0.0 mm 0.18 in4.6 mm
05:02 PM 64.8°F18.2°C 63.0°F17.2°C 94% 7.0 mph S11.3 kmh S -- 30.02 in1016.6 mb 0.02 in0.5 mm 0.00 in0.0 mm 0.18 in4.6 mm
05:07 PM 64.8°F18.2°C 62.7°F17.1°C 93% 4.0 mph S6.4 kmh S -- 30.02 in1016.6 mb 0.02 in0.5 mm 0.00 in0.0 mm 0.18 in4.6 mm
05:12 PM 64.8°F18.2°C 62.7°F17.1°C 93% 4.0 mph S6.4 kmh S -- 30.02 in1016.6 mb 0.02 in0.5 mm 0.00 in0.0 mm 0.18 in4.6 mm
05:17 PM 64.6°F18.1°C 62.8°F17.1°C 94% 7.0 mph S11.3 kmh S -- 30.02 in1016.6 mb 0.02 in0.5 mm 0.00 in0.0 mm 0.18 in4.6 mm
05:22 PM 64.5°F18.1°C 62.8°F17.1°C 94% 3.0 mph S4.8 kmh S -- 30.02 in1016.6 mb 0.02 in0.5 mm 0.00 in0.0 mm 0.18 in4.6 mm
05:27 PM 64.4°F18.0°C 62.6°F17.0°C 94% 6.0 mph S9.7 kmh S -- 30.01 in1016.3 mb 0.02 in0.5 mm 0.00 in0.0 mm 0.18 in4.6 mm
05:32 PM 64.4°F18.0°C 62.6°F17.0°C 94% 4.0 mph SSE6.4 kmh SSE -- 30.01 in1016.3 mb 0.02 in0.5 mm 0.00 in0.0 mm 0.19 in4.8 mm
05:37 PM 64.3°F17.9°C 62.4°F16.9°C 94% 3.0 mph S4.8 kmh S -- 30.01 in1016.3 mb 0.02 in0.5 mm 0.00 in0.0 mm 0.20 in5.1 mm
05:42 PM 64.1°F17.8°C 62.6°F17.0°C 95% 4.0 mph SW6.4 kmh SW -- 30.01 in1016.3 mb 0.03 in0.8 mm 0.12 in3.0 mm 0.21 in5.3 mm
05:47 PM 63.7°F17.6°C 62.2°F16.8°C 95% 6.0 mph S9.7 kmh S -- 30.01 in1016.3 mb 0.03 in0.8 mm 0.00 in0.0 mm 0.21 in5.3 mm
05:52 PM 63.6°F17.6°C 62.2°F16.8°C 95% 3.0 mph S4.8 kmh S -- 30.00 in1015.9 mb 0.04 in1.0 mm 0.12 in3.0 mm 0.22 in5.6 mm
05:57 PM 63.5°F17.5°C 62.0°F16.7°C 95% 7.0 mph S11.3 kmh S -- 30.00 in1015.9 mb 0.04 in1.0 mm 0.00 in0.0 mm 0.22 in5.6 mm
06:02 PM 63.4°F17.4°C 61.9°F16.6°C 95% 5.0 mph S8.0 kmh S -- 30.00 in1015.9 mb 0.04 in1.0 mm 0.00 in0.0 mm 0.22 in5.6 mm
06:07 PM 63.3°F17.4°C 61.9°F16.6°C 95% 4.0 mph SSW6.4 kmh SSW -- 29.99 in1015.6 mb 0.04 in1.0 mm 0.00 in0.0 mm 0.22 in5.6 mm
06:12 PM 63.3°F17.4°C 62.2°F16.8°C 96% 8.0 mph SSW12.9 kmh SSW -- 30.00 in1015.9 mb 0.04 in1.0 mm 0.00 in0.0 mm 0.22 in5.6 mm
06:17 PM 63.2°F17.3°C 61.7°F16.5°C 95% 2.0 mph S3.2 kmh S -- 29.99 in1015.6 mb 0.04 in1.0 mm 0.00 in0.0 mm 0.22 in5.6 mm
06:22 PM 63.1°F17.3°C 61.7°F16.5°C 95% 3.0 mph ESE4.8 kmh ESE -- 29.99 in1015.6 mb 0.04 in1.0 mm 0.00 in0.0 mm 0.22 in5.6 mm
06:27 PM 62.9°F17.2°C 61.5°F16.4°C 95% 3.0 mph S4.8 kmh S -- 29.99 in1015.6 mb 0.03 in0.8 mm 0.00 in0.0 mm 0.22 in5.6 mm
06:32 PM 62.8°F17.1°C 61.3°F16.3°C 95% 3.0 mph S4.8 kmh S -- 29.98 in1015.2 mb 0.03 in0.8 mm 0.00 in0.0 mm 0.22 in5.6 mm
06:37 PM 62.7°F17.1°C 61.3°F16.3°C 95% 6.0 mph S9.7 kmh S -- 29.98 in1015.2 mb 0.01 in0.3 mm 0.00 in0.0 mm 0.22 in5.6 mm
06:42 PM 62.7°F17.1°C 61.6°F16.4°C 96% 5.0 mph S8.0 kmh S -- 29.98 in1015.2 mb 0.02 in0.5 mm 0.12 in3.0 mm 0.23 in5.8 mm
06:47 PM 62.5°F16.9°C 61.3°F16.3°C 96% 3.0 mph SSE4.8 kmh SSE -- 29.98 in1015.2 mb 0.01 in0.3 mm 0.00 in0.0 mm 0.23 in5.8 mm
06:52 PM 62.4°F16.9°C 61.3°F16.3°C 96% 4.0 mph S6.4 kmh S -- 29.98 in1015.2 mb 0.01 in0.3 mm 0.00 in0.0 mm 0.23 in5.8 mm
06:57 PM 62.4°F16.9°C 61.3°F16.3°C 96% 2.0 mph SSE3.2 kmh SSE -- 29.97 in1014.9 mb 0.01 in0.3 mm 0.00 in0.0 mm 0.23 in5.8 mm
07:02 PM 62.3°F16.8°C 61.1°F16.2°C 96% 2.0 mph S3.2 kmh S -- 29.97 in1014.9 mb 0.01 in0.3 mm 0.00 in0.0 mm 0.23 in5.8 mm
07:07 PM 62.3°F16.8°C 61.1°F16.2°C 96% 2.0 mph S3.2 kmh S -- 29.97 in1014.9 mb 0.02 in0.5 mm 0.12 in3.0 mm 0.24 in6.1 mm
07:12 PM 62.2°F16.8°C 61.1°F16.2°C 96% 3.0 mph S4.8 kmh S -- 29.97 in1014.9 mb 0.02 in0.5 mm 0.00 in0.0 mm 0.24 in6.1 mm
07:17 PM 62.2°F16.8°C 61.1°F16.2°C 96% 2.0 mph S3.2 kmh S -- 29.97 in1014.9 mb 0.02 in0.5 mm 0.00 in0.0 mm 0.24 in6.1 mm
07:22 PM 62.2°F16.8°C 61.4°F16.3°C 97% 3.0 mph SSE4.8 kmh SSE -- 29.96 in1014.6 mb 0.02 in0.5 mm 0.00 in0.0 mm 0.24 in6.1 mm
07:27 PM 62.2°F16.8°C 61.4°F16.3°C 97% 2.0 mph SSE3.2 kmh SSE -- 29.96 in1014.6 mb 0.02 in0.5 mm 0.00 in0.0 mm 0.24 in6.1 mm
07:32 PM 62.2°F16.8°C 61.4°F16.3°C 97% 4.0 mph S6.4 kmh S -- 29.96 in1014.6 mb 0.02 in0.5 mm 0.00 in0.0 mm 0.24 in6.1 mm
07:37 PM 62.3°F16.8°C 61.4°F16.3°C 97% 2.0 mph S3.2 kmh S -- 29.96 in1014.6 mb 0.01 in0.3 mm 0.00 in0.0 mm 0.24 in6.1 mm
07:42 PM 62.4°F16.9°C 61.5°F16.4°C 97% 7.0 mph S11.3 kmh S -- 29.96 in1014.6 mb 0.01 in0.3 mm 0.00 in0.0 mm 0.24 in6.1 mm
07:47 PM 62.5°F16.9°C 61.5°F16.4°C 97% 3.0 mph S4.8 kmh S -- 29.95 in1014.2 mb 0.01 in0.3 mm 0.00 in0.0 mm 0.24 in6.1 mm
07:52 PM 62.4°F16.9°C 61.5°F16.4°C 97% 3.0 mph SSE4.8 kmh SSE -- 29.95 in1014.2 mb 0.01 in0.3 mm 0.00 in0.0 mm 0.24 in6.1 mm
07:57 PM 62.4°F16.9°C 61.5°F16.4°C 97% 2.0 mph SSE3.2 kmh SSE -- 29.95 in1014.2 mb 0.01 in0.3 mm 0.00 in0.0 mm 0.24 in6.1 mm
08:02 PM 62.6°F17.0°C 61.7°F16.5°C 97% 4.0 mph SE6.4 kmh SE -- 29.94 in1013.9 mb 0.01 in0.3 mm 0.00 in0.0 mm 0.24 in6.1 mm
08:07 PM 62.6°F17.0°C 61.7°F16.5°C 97% 3.0 mph SE4.8 kmh SE -- 29.94 in1013.9 mb 0.01 in0.3 mm 0.00 in0.0 mm 0.25 in6.4 mm
08:12 PM 62.7°F17.1°C 61.9°F16.6°C 97% 3.0 mph S4.8 kmh S -- 29.94 in1013.9 mb 0.02 in0.5 mm 0.12 in3.0 mm 0.26 in6.6 mm
08:17 PM 62.7°F17.1°C 62.2°F16.8°C 98% 3.0 mph SSW4.8 kmh SSW -- 29.94 in1013.9 mb 0.02 in0.5 mm 0.00 in0.0 mm 0.26 in6.6 mm
08:22 PM 62.9°F17.2°C 62.4°F16.9°C 98% 5.0 mph S8.0 kmh S -- 29.93 in1013.5 mb 0.02 in0.5 mm 0.00 in0.0 mm 0.26 in6.6 mm
08:27 PM 63.0°F17.2°C 62.4°F16.9°C 98% 3.0 mph S4.8 kmh S -- 29.93 in1013.5 mb 0.02 in0.5 mm 0.00 in0.0 mm 0.26 in6.6 mm
08:32 PM 63.1°F17.3°C 62.6°F17.0°C 98% 3.0 mph SSE4.8 kmh SSE -- 29.93 in1013.5 mb 0.02 in0.5 mm 0.00 in0.0 mm 0.26 in6.6 mm
08:37 PM 63.2°F17.3°C 62.6°F17.0°C 98% 7.0 mph S11.3 kmh S -- 29.92 in1013.2 mb 0.02 in0.5 mm 0.00 in0.0 mm 0.26 in6.6 mm
08:42 PM 63.3°F17.4°C 62.7°F17.1°C 98% 5.0 mph S8.0 kmh S -- 29.92 in1013.2 mb 0.02 in0.5 mm 0.00 in0.0 mm 0.26 in6.6 mm
08:47 PM 63.5°F17.5°C 62.9°F17.2°C 98% 6.0 mph S9.7 kmh S -- 29.92 in1013.2 mb 0.02 in0.5 mm 0.00 in0.0 mm 0.26 in6.6 mm
08:52 PM 63.6°F17.6°C 63.1°F17.3°C 98% 5.0 mph S8.0 kmh S -- 29.92 in1013.2 mb 0.02 in0.5 mm 0.00 in0.0 mm 0.26 in6.6 mm
08:57 PM 63.8°F17.7°C 63.3°F17.4°C 98% 4.0 mph S6.4 kmh S -- 29.92 in1013.2 mb 0.01 in0.3 mm 0.00 in0.0 mm 0.26 in6.6 mm
09:02 PM 63.9°F17.7°C 63.3°F17.4°C 98% 5.0 mph S8.0 kmh S -- 29.91 in1012.9 mb 0.01 in0.3 mm 0.00 in0.0 mm 0.26 in6.6 mm
09:07 PM 63.9°F17.7°C 63.3°F17.4°C 98% 4.0 mph S6.4 kmh S -- 29.91 in1012.9 mb 0.00 in0.0 mm 0.00 in0.0 mm 0.26 in6.6 mm
09:12 PM 64.0°F17.8°C 63.5°F17.5°C 98% 4.0 mph S6.4 kmh S -- 29.91 in1012.9 mb 0.00 in0.0 mm 0.00 in0.0 mm 0.26 in6.6 mm
09:17 PM 64.0°F17.8°C 63.5°F17.5°C 98% 6.0 mph SSW9.7 kmh SSW -- 29.91 in1012.9 mb 0.00 in0.0 mm 0.00 in0.0 mm 0.26 in6.6 mm
09:22 PM 64.0°F17.8°C 63.5°F17.5°C 98% 7.0 mph S11.3 kmh S -- 29.90 in1012.5 mb 0.01 in0.3 mm 0.12 in3.0 mm 0.27 in6.9 mm
09:27 PM 64.0°F17.8°C 63.5°F17.5°C 98% 5.0 mph S8.0 kmh S -- 29.90 in1012.5 mb 0.01 in0.3 mm 0.00 in0.0 mm 0.27 in6.9 mm
09:32 PM 64.0°F17.8°C 63.5°F17.5°C 98% 5.0 mph SSE8.0 kmh SSE -- 29.90 in1012.5 mb 0.01 in0.3 mm 0.00 in0.0 mm 0.27 in6.9 mm
09:37 PM 64.1°F17.8°C 63.5°F17.5°C 98% 5.0 mph S8.0 kmh S -- 29.90 in1012.5 mb 0.01 in0.3 mm 0.00 in0.0 mm 0.27 in6.9 mm
09:42 PM 64.2°F17.9°C 63.6°F17.6°C 98% 4.0 mph SSE6.4 kmh SSE -- 29.90 in1012.5 mb 0.01 in0.3 mm 0.00 in0.0 mm 0.27 in6.9 mm
09:47 PM 64.2°F17.9°C 63.6°F17.6°C 98% 5.0 mph S8.0 kmh S -- 29.90 in1012.5 mb 0.01 in0.3 mm 0.00 in0.0 mm 0.27 in6.9 mm
09:52 PM 64.2°F17.9°C 63.6°F17.6°C 98% 3.0 mph S4.8 kmh S -- 29.90 in1012.5 mb 0.02 in0.5 mm 0.12 in3.0 mm 0.28 in7.1 mm
09:57 PM 64.2°F17.9°C 63.6°F17.6°C 98% 4.0 mph SSE6.4 kmh SSE -- 29.90 in1012.5 mb 0.02 in0.5 mm 0.00 in0.0 mm 0.28 in7.1 mm
10:02 PM 64.3°F17.9°C 63.6°F17.6°C 98% 6.0 mph SSW9.7 kmh SSW -- 29.89 in1012.2 mb 0.02 in0.5 mm 0.00 in0.0 mm 0.28 in7.1 mm
10:07 PM 64.4°F18.0°C 63.8°F17.7°C 98% 3.0 mph S4.8 kmh S -- 29.90 in1012.5 mb 0.02 in0.5 mm 0.00 in0.0 mm 0.28 in7.1 mm
10:12 PM 64.4°F18.0°C 63.8°F17.7°C 98% 6.0 mph SSE9.7 kmh SSE -- 29.89 in1012.2 mb 0.02 in0.5 mm 0.00 in0.0 mm 0.28 in7.1 mm
10:17 PM 64.4°F18.0°C 63.8°F17.7°C 98% 6.0 mph SW9.7 kmh SW -- 29.89 in1012.2 mb 0.01 in0.3 mm 0.00 in0.0 mm 0.28 in7.1 mm
10:22 PM 64.5°F18.1°C 64.0°F17.8°C 98% 3.0 mph S4.8 kmh S -- 29.89 in1012.2 mb 0.01 in0.3 mm 0.00 in0.0 mm 0.28 in7.1 mm
10:27 PM 64.5°F18.1°C 64.0°F17.8°C 98% 6.0 mph S9.7 kmh S -- 29.89 in1012.2 mb 0.01 in0.3 mm 0.00 in0.0 mm 0.28 in7.1 mm
10:32 PM 64.6°F18.1°C 64.0°F17.8°C 98% 2.0 mph WSW3.2 kmh WSW -- 29.89 in1012.2 mb 0.01 in0.3 mm 0.00 in0.0 mm 0.28 in7.1 mm
10:37 PM 64.6°F18.1°C 64.0°F17.8°C 98% 4.0 mph SSE6.4 kmh SSE -- 29.89 in1012.2 mb 0.01 in0.3 mm 0.00 in0.0 mm 0.28 in7.1 mm
10:42 PM 64.7°F18.2°C 64.2°F17.9°C 98% 7.0 mph SSW11.3 kmh SSW -- 29.89 in1012.2 mb 0.01 in0.3 mm 0.00 in0.0 mm 0.28 in7.1 mm
10:47 PM 64.8°F18.2°C 64.2°F17.9°C 98% 4.0 mph S6.4 kmh S -- 29.88 in1011.9 mb 0.01 in0.3 mm 0.00 in0.0 mm 0.29 in7.4 mm
10:52 PM 64.8°F18.2°C 64.2°F17.9°C 98% 3.0 mph SSW4.8 kmh SSW -- 29.88 in1011.9 mb 0.01 in0.3 mm 0.00 in0.0 mm 0.29 in7.4 mm
10:57 PM 64.8°F18.2°C 64.2°F17.9°C 98% 7.0 mph S11.3 kmh S -- 29.88 in1011.9 mb 0.02 in0.5 mm 0.12 in3.0 mm 0.30 in7.6 mm
11:02 PM 64.8°F18.2°C 64.2°F17.9°C 98% 6.0 mph S9.7 kmh S -- 29.88 in1011.9 mb 0.02 in0.5 mm 0.00 in0.0 mm 0.30 in7.6 mm
11:07 PM 64.8°F18.2°C 64.2°F17.9°C 98% 5.0 mph S8.0 kmh S -- 29.88 in1011.9 mb 0.02 in0.5 mm 0.00 in0.0 mm 0.30 in7.6 mm
11:12 PM 64.8°F18.2°C 64.2°F17.9°C 98% 5.0 mph S8.0 kmh S -- 29.88 in1011.9 mb 0.02 in0.5 mm 0.00 in0.0 mm 0.30 in7.6 mm
11:17 PM 64.9°F18.3°C 64.4°F18.0°C 98% 6.0 mph S9.7 kmh S -- 29.87 in1011.5 mb 0.02 in0.5 mm 0.00 in0.0 mm 0.30 in7.6 mm
11:22 PM 64.9°F18.3°C 64.4°F18.0°C 98% 6.0 mph S9.7 kmh S -- 29.87 in1011.5 mb 0.02 in0.5 mm 0.00 in0.0 mm 0.30 in7.6 mm
11:27 PM 64.9°F18.3°C 64.4°F18.0°C 98% 4.0 mph S6.4 kmh S -- 29.87 in1011.5 mb 0.02 in0.5 mm 0.00 in0.0 mm 0.30 in7.6 mm
11:32 PM 64.9°F18.3°C 64.4°F18.0°C 98% 4.0 mph S6.4 kmh S -- 29.87 in1011.5 mb 0.02 in0.5 mm 0.00 in0.0 mm 0.30 in7.6 mm
11:37 PM 64.9°F18.3°C 64.4°F18.0°C 98% 3.0 mph SSW4.8 kmh SSW -- 29.87 in1011.5 mb 0.02 in0.5 mm 0.00 in0.0 mm 0.31 in7.9 mm
11:42 PM 65.0°F18.3°C 64.4°F18.0°C 98% 4.0 mph SSE6.4 kmh SSE -- 29.87 in1011.5 mb 0.02 in0.5 mm 0.00 in0.0 mm 0.31 in7.9 mm
11:47 PM 65.1°F18.4°C 64.5°F18.1°C 98% 4.0 mph S6.4 kmh S -- 29.87 in1011.5 mb 0.01 in0.3 mm 0.00 in0.0 mm 0.31 in7.9 mm
11:53 PM 65.0°F18.3°C 64.1°F17.8°C 97% 11.0 mph SSE17.7 kmh SSE -- 29.87 in1011.5 mb 0.01 in0.3 mm 0.00 in0.0 mm 0.23 in5.8 mm
11:57 PM 65.1°F18.4°C 64.2°F17.9°C 97% 6.0 mph S9.7 kmh S -- 29.86 in1011.2 mb 0.01 in0.3 mm 0.00 in0.0 mm 0.23 in5.8 mm